sensor_id;sensor_type;location;lat;lon;timestamp;P1;durP1;ratioP1;P2;durP2;ratioP2
54271;SDS011;40184;53.362;5.216;2022-08-16T00:01:54;16.02;;;9.43;;
54271;SDS011;40184;53.362;5.216;2022-08-16T00:04:20;13.50;;;10.15;;
54271;SDS011;40184;53.362;5.216;2022-08-16T00:06:46;13.55;;;10.32;;
54271;SDS011;40184;53.362;5.216;2022-08-16T00:09:12;17.30;;;9.02;;
54271;SDS011;40184;53.362;5.216;2022-08-16T00:11:39;12.85;;;9.43;;
54271;SDS011;40184;53.362;5.216;2022-08-16T00:14:08;11.85;;;8.75;;
54271;SDS011;40184;53.362;5.216;2022-08-16T00:16:36;16.13;;;7.95;;
54271;SDS011;40184;53.362;5.216;2022-08-16T00:19:02;13.32;;;8.50;;
54271;SDS011;40184;53.362;5.216;2022-08-16T00:21:29;10.55;;;7.85;;
54271;SDS011;40184;53.362;5.216;2022-08-16T00:23:55;9.98;;;8.30;;
54271;SDS011;40184;53.362;5.216;2022-08-16T00:26:21;12.75;;;7.60;;
54271;SDS011;40184;53.362;5.216;2022-08-16T00:28:47;9.63;;;7.25;;
54271;SDS011;40184;53.362;5.216;2022-08-16T00:31:13;11.23;;;8.90;;
54271;SDS011;40184;53.362;5.216;2022-08-16T00:33:39;8.63;;;7.50;;
54271;SDS011;40184;53.362;5.216;2022-08-16T00:36:04;22.15;;;9.02;;
54271;SDS011;40184;53.362;5.216;2022-08-16T00:38:30;11.20;;;8.18;;
54271;SDS011;40184;53.362;5.216;2022-08-16T00:40:56;11.93;;;7.82;;
54271;SDS011;40184;53.362;5.216;2022-08-16T00:43:26;12.43;;;8.07;;
54271;SDS011;40184;53.362;5.216;2022-08-16T00:48:20;11.93;;;8.55;;
54271;SDS011;40184;53.362;5.216;2022-08-16T00:50:46;9.98;;;8.40;;
54271;SDS011;40184;53.362;5.216;2022-08-16T00:53:12;10.05;;;7.32;;
54271;SDS011;40184;53.362;5.216;2022-08-16T00:55:42;9.07;;;7.53;;
54271;SDS011;40184;53.362;5.216;2022-08-16T00:58:11;8.65;;;7.75;;
54271;SDS011;40184;53.362;5.216;2022-08-16T01:00:39;11.05;;;7.60;;
54271;SDS011;40184;53.362;5.216;2022-08-16T01:03:06;14.52;;;7.05;;
54271;SDS011;40184;53.362;5.216;2022-08-16T01:05:35;9.93;;;7.22;;
54271;SDS011;40184;53.362;5.216;2022-08-16T01:08:01;11.27;;;7.47;;
54271;SDS011;40184;53.362;5.216;2022-08-16T01:10:30;10.07;;;6.95;;
54271;SDS011;40184;53.362;5.216;2022-08-16T01:12:57;9.38;;;6.90;;
54271;SDS011;40184;53.362;5.216;2022-08-16T01:15:30;9.45;;;7.60;;
54271;SDS011;40184;53.362;5.216;2022-08-16T01:17:57;11.80;;;7.90;;
54271;SDS011;40184;53.362;5.216;2022-08-16T01:20:24;10.20;;;7.15;;
54271;SDS011;40184;53.362;5.216;2022-08-16T01:22:59;10.27;;;7.47;;
54271;SDS011;40184;53.362;5.216;2022-08-16T01:25:38;9.75;;;7.18;;
54271;SDS011;40184;53.362;5.216;2022-08-16T01:30:38;9.65;;;7.47;;
54271;SDS011;40184;53.362;5.216;2022-08-16T01:33:06;9.80;;;7.85;;
54271;SDS011;40184;53.362;5.216;2022-08-16T01:35:40;9.02;;;8.23;;
54271;SDS011;40184;53.362;5.216;2022-08-16T01:41:22;14.02;;;10.23;;
54271;SDS011;40184;53.362;5.216;2022-08-16T01:43:51;9.98;;;8.73;;
54271;SDS011;40184;53.362;5.216;2022-08-16T01:48:49;11.93;;;10.73;;
54271;SDS011;40184;53.362;5.216;2022-08-16T01:51:19;12.85;;;11.50;;
54271;SDS011;40184;53.362;5.216;2022-08-16T01:53:46;12.32;;;10.10;;
54271;SDS011;40184;53.362;5.216;2022-08-16T01:56:12;10.77;;;9.38;;
54271;SDS011;40184;53.362;5.216;2022-08-16T01:58:38;9.82;;;8.80;;
54271;SDS011;40184;53.362;5.216;2022-08-16T02:01:04;11.43;;;6.72;;
54271;SDS011;40184;53.362;5.216;2022-08-16T02:03:31;12.48;;;7.32;;
54271;SDS011;40184;53.362;5.216;2022-08-16T02:05:57;9.82;;;6.47;;
54271;SDS011;40184;53.362;5.216;2022-08-16T02:08:22;8.15;;;7.22;;
54271;SDS011;40184;53.362;5.216;2022-08-16T02:10:50;8.43;;;7.55;;
54271;SDS011;40184;53.362;5.216;2022-08-16T02:13:17;15.93;;;10.10;;
54271;SDS011;40184;53.362;5.216;2022-08-16T02:15:43;13.60;;;10.07;;
54271;SDS011;40184;53.362;5.216;2022-08-16T02:18:08;18.15;;;12.05;;
54271;SDS011;40184;53.362;5.216;2022-08-16T02:20:35;15.35;;;12.70;;
54271;SDS011;40184;53.362;5.216;2022-08-16T02:23:02;15.50;;;11.95;;
54271;SDS011;40184;53.362;5.216;2022-08-16T02:25:29;15.05;;;11.57;;
54271;SDS011;40184;53.362;5.216;2022-08-16T02:27:55;17.17;;;11.73;;
54271;SDS011;40184;53.362;5.216;2022-08-16T02:30:26;17.83;;;12.23;;
54271;SDS011;40184;53.362;5.216;2022-08-16T02:32:55;17.80;;;12.10;;
54271;SDS011;40184;53.362;5.216;2022-08-16T02:35:23;16.85;;;12.30;;
54271;SDS011;40184;53.362;5.216;2022-08-16T02:37:50;19.02;;;12.80;;
54271;SDS011;40184;53.362;5.216;2022-08-16T02:40:17;14.70;;;13.02;;
54271;SDS011;40184;53.362;5.216;2022-08-16T02:42:44;22.30;;;14.27;;
54271;SDS011;40184;53.362;5.216;2022-08-16T02:45:11;18.48;;;13.20;;
54271;SDS011;40184;53.362;5.216;2022-08-16T02:47:37;15.43;;;13.10;;
54271;SDS011;40184;53.362;5.216;2022-08-16T02:50:03;14.73;;;12.73;;
54271;SDS011;40184;53.362;5.216;2022-08-16T02:52:30;19.63;;;11.88;;
54271;SDS011;40184;53.362;5.216;2022-08-16T02:54:56;14.93;;;10.68;;
54271;SDS011;40184;53.362;5.216;2022-08-16T02:57:21;14.65;;;10.98;;
54271;SDS011;40184;53.362;5.216;2022-08-16T02:59:48;18.40;;;13.15;;
54271;SDS011;40184;53.362;5.216;2022-08-16T03:02:14;15.07;;;12.13;;
54271;SDS011;40184;53.362;5.216;2022-08-16T03:04:41;18.58;;;12.00;;
54271;SDS011;40184;53.362;5.216;2022-08-16T03:07:07;18.83;;;10.75;;
54271;SDS011;40184;53.362;5.216;2022-08-16T03:09:33;14.05;;;10.10;;
54271;SDS011;40184;53.362;5.216;2022-08-16T03:12:00;16.70;;;9.45;;
54271;SDS011;40184;53.362;5.216;2022-08-16T03:14:26;15.80;;;10.43;;
54271;SDS011;40184;53.362;5.216;2022-08-16T03:16:52;17.60;;;8.85;;
54271;SDS011;40184;53.362;5.216;2022-08-16T03:19:18;15.95;;;9.13;;
54271;SDS011;40184;53.362;5.216;2022-08-16T03:21:44;12.55;;;8.40;;
54271;SDS011;40184;53.362;5.216;2022-08-16T03:24:10;14.90;;;8.07;;
54271;SDS011;40184;53.362;5.216;2022-08-16T03:26:36;12.02;;;7.85;;
54271;SDS011;40184;53.362;5.216;2022-08-16T03:29:02;15.50;;;8.68;;
54271;SDS011;40184;53.362;5.216;2022-08-16T03:31:28;13.77;;;8.48;;
54271;SDS011;40184;53.362;5.216;2022-08-16T03:33:54;19.73;;;10.05;;
54271;SDS011;40184;53.362;5.216;2022-08-16T03:36:20;15.70;;;10.07;;
54271;SDS011;40184;53.362;5.216;2022-08-16T03:38:45;15.88;;;10.07;;
54271;SDS011;40184;53.362;5.216;2022-08-16T03:41:11;16.85;;;10.65;;
54271;SDS011;40184;53.362;5.216;2022-08-16T03:43:37;16.92;;;10.40;;
54271;SDS011;40184;53.362;5.216;2022-08-16T03:46:03;23.48;;;11.00;;
54271;SDS011;40184;53.362;5.216;2022-08-16T03:48:30;23.58;;;12.35;;
54271;SDS011;40184;53.362;5.216;2022-08-16T03:50:59;18.15;;;12.20;;
54271;SDS011;40184;53.362;5.216;2022-08-16T03:53:26;18.38;;;12.35;;
54271;SDS011;40184;53.362;5.216;2022-08-16T03:55:52;19.05;;;12.38;;
54271;SDS011;40184;53.362;5.216;2022-08-16T03:58:18;16.20;;;12.57;;
54271;SDS011;40184;53.362;5.216;2022-08-16T04:00:44;22.17;;;13.90;;
54271;SDS011;40184;53.362;5.216;2022-08-16T04:03:09;30.08;;;16.40;;
54271;SDS011;40184;53.362;5.216;2022-08-16T04:05:40;26.98;;;16.98;;
54271;SDS011;40184;53.362;5.216;2022-08-16T04:08:10;25.27;;;18.38;;
54271;SDS011;40184;53.362;5.216;2022-08-16T04:10:37;25.50;;;19.83;;
54271;SDS011;40184;53.362;5.216;2022-08-16T04:13:03;31.17;;;21.48;;
54271;SDS011;40184;53.362;5.216;2022-08-16T04:15:29;29.63;;;20.70;;
54271;SDS011;40184;53.362;5.216;2022-08-16T04:17:55;26.65;;;20.50;;
54271;SDS011;40184;53.362;5.216;2022-08-16T04:20:22;27.25;;;20.13;;
54271;SDS011;40184;53.362;5.216;2022-08-16T04:22:48;29.50;;;19.65;;
54271;SDS011;40184;53.362;5.216;2022-08-16T04:25:14;28.45;;;20.55;;
54271;SDS011;40184;53.362;5.216;2022-08-16T04:27:40;25.55;;;20.02;;
54271;SDS011;40184;53.362;5.216;2022-08-16T04:30:08;36.28;;;20.67;;
54271;SDS011;40184;53.362;5.216;2022-08-16T04:32:35;27.75;;;21.90;;
54271;SDS011;40184;53.362;5.216;2022-08-16T04:35:03;29.83;;;20.33;;
54271;SDS011;40184;53.362;5.216;2022-08-16T04:37:30;28.27;;;21.08;;
54271;SDS011;40184;53.362;5.216;2022-08-16T04:39:55;28.65;;;22.60;;
54271;SDS011;40184;53.362;5.216;2022-08-16T04:42:21;28.25;;;22.30;;
54271;SDS011;40184;53.362;5.216;2022-08-16T04:44:47;23.98;;;19.65;;
54271;SDS011;40184;53.362;5.216;2022-08-16T04:47:13;28.42;;;20.35;;
54271;SDS011;40184;53.362;5.216;2022-08-16T04:49:39;27.58;;;20.75;;
54271;SDS011;40184;53.362;5.216;2022-08-16T04:52:05;27.35;;;21.75;;
54271;SDS011;40184;53.362;5.216;2022-08-16T04:54:30;28.98;;;20.73;;
54271;SDS011;40184;53.362;5.216;2022-08-16T04:56:56;29.80;;;21.17;;
54271;SDS011;40184;53.362;5.216;2022-08-16T04:59:22;36.80;;;21.35;;
54271;SDS011;40184;53.362;5.216;2022-08-16T05:01:47;32.72;;;22.50;;
54271;SDS011;40184;53.362;5.216;2022-08-16T05:04:13;32.90;;;22.02;;
54271;SDS011;40184;53.362;5.216;2022-08-16T05:06:39;30.98;;;21.88;;
54271;SDS011;40184;53.362;5.216;2022-08-16T05:09:05;29.85;;;21.52;;
54271;SDS011;40184;53.362;5.216;2022-08-16T05:11:31;26.88;;;21.70;;
54271;SDS011;40184;53.362;5.216;2022-08-16T05:13:57;33.30;;;20.58;;
54271;SDS011;40184;53.362;5.216;2022-08-16T05:16:27;35.75;;;21.75;;
54271;SDS011;40184;53.362;5.216;2022-08-16T05:18:54;30.95;;;21.77;;
54271;SDS011;40184;53.362;5.216;2022-08-16T05:21:21;33.00;;;22.50;;
54271;SDS011;40184;53.362;5.216;2022-08-16T05:23:50;31.00;;;22.63;;
54271;SDS011;40184;53.362;5.216;2022-08-16T05:26:17;30.00;;;22.13;;
54271;SDS011;40184;53.362;5.216;2022-08-16T05:28:43;32.13;;;22.77;;
54271;SDS011;40184;53.362;5.216;2022-08-16T05:31:09;30.65;;;21.67;;
54271;SDS011;40184;53.362;5.216;2022-08-16T05:33:34;31.25;;;21.73;;
54271;SDS011;40184;53.362;5.216;2022-08-16T05:36:00;34.80;;;20.67;;
54271;SDS011;40184;53.362;5.216;2022-08-16T05:38:26;29.98;;;22.10;;
54271;SDS011;40184;53.362;5.216;2022-08-16T05:40:55;34.78;;;22.42;;
54271;SDS011;40184;53.362;5.216;2022-08-16T05:43:21;29.35;;;20.98;;
54271;SDS011;40184;53.362;5.216;2022-08-16T05:45:47;36.38;;;21.10;;
54271;SDS011;40184;53.362;5.216;2022-08-16T05:48:12;37.55;;;22.25;;
54271;SDS011;40184;53.362;5.216;2022-08-16T05:50:38;26.77;;;22.48;;
54271;SDS011;40184;53.362;5.216;2022-08-16T05:53:04;31.45;;;23.35;;
54271;SDS011;40184;53.362;5.216;2022-08-16T05:55:31;32.67;;;21.25;;
54271;SDS011;40184;53.362;5.216;2022-08-16T05:57:56;26.80;;;19.60;;
54271;SDS011;40184;53.362;5.216;2022-08-16T06:00:22;29.30;;;20.15;;
54271;SDS011;40184;53.362;5.216;2022-08-16T06:02:49;27.77;;;17.98;;
54271;SDS011;40184;53.362;5.216;2022-08-16T06:05:15;21.08;;;14.88;;
54271;SDS011;40184;53.362;5.216;2022-08-16T06:07:41;21.60;;;14.48;;
54271;SDS011;40184;53.362;5.216;2022-08-16T06:10:07;29.58;;;14.70;;
54271;SDS011;40184;53.362;5.216;2022-08-16T06:12:34;25.20;;;15.88;;
54271;SDS011;40184;53.362;5.216;2022-08-16T06:15:01;27.98;;;15.75;;
54271;SDS011;40184;53.362;5.216;2022-08-16T06:17:30;30.58;;;16.48;;
54271;SDS011;40184;53.362;5.216;2022-08-16T06:19:56;30.45;;;18.52;;
54271;SDS011;40184;53.362;5.216;2022-08-16T06:22:22;29.48;;;17.10;;
54271;SDS011;40184;53.362;5.216;2022-08-16T06:24:47;32.55;;;18.30;;
54271;SDS011;40184;53.362;5.216;2022-08-16T06:27:15;29.77;;;18.13;;
54271;SDS011;40184;53.362;5.216;2022-08-16T06:29:40;31.38;;;18.80;;
54271;SDS011;40184;53.362;5.216;2022-08-16T06:32:08;36.33;;;19.63;;
54271;SDS011;40184;53.362;5.216;2022-08-16T06:34:35;28.17;;;17.77;;
54271;SDS011;40184;53.362;5.216;2022-08-16T06:37:02;28.17;;;18.23;;
54271;SDS011;40184;53.362;5.216;2022-08-16T06:39:29;31.55;;;17.08;;
54271;SDS011;40184;53.362;5.216;2022-08-16T06:41:55;28.48;;;14.80;;
54271;SDS011;40184;53.362;5.216;2022-08-16T06:44:21;27.52;;;14.82;;
54271;SDS011;40184;53.362;5.216;2022-08-16T06:46:46;23.30;;;13.30;;
54271;SDS011;40184;53.362;5.216;2022-08-16T06:49:12;19.50;;;13.23;;
54271;SDS011;40184;53.362;5.216;2022-08-16T06:51:38;22.13;;;13.40;;
54271;SDS011;40184;53.362;5.216;2022-08-16T06:54:05;28.52;;;14.35;;
54271;SDS011;40184;53.362;5.216;2022-08-16T06:56:31;30.63;;;11.75;;
54271;SDS011;40184;53.362;5.216;2022-08-16T06:58:57;25.98;;;11.27;;
54271;SDS011;40184;53.362;5.216;2022-08-16T07:01:23;21.42;;;10.73;;
54271;SDS011;40184;53.362;5.216;2022-08-16T07:03:49;26.77;;;11.23;;
54271;SDS011;40184;53.362;5.216;2022-08-16T07:06:15;16.15;;;9.43;;
54271;SDS011;40184;53.362;5.216;2022-08-16T07:08:43;20.67;;;9.07;;
54271;SDS011;40184;53.362;5.216;2022-08-16T07:11:11;22.67;;;10.68;;
54271;SDS011;40184;53.362;5.216;2022-08-16T07:13:37;25.10;;;10.48;;
54271;SDS011;40184;53.362;5.216;2022-08-16T07:16:04;17.77;;;10.15;;
54271;SDS011;40184;53.362;5.216;2022-08-16T07:18:31;21.50;;;9.95;;
54271;SDS011;40184;53.362;5.216;2022-08-16T07:20:57;16.50;;;9.68;;
54271;SDS011;40184;53.362;5.216;2022-08-16T07:23:24;23.92;;;9.88;;
54271;SDS011;40184;53.362;5.216;2022-08-16T07:25:50;26.30;;;9.90;;
54271;SDS011;40184;53.362;5.216;2022-08-16T07:28:17;19.77;;;9.32;;
54271;SDS011;40184;53.362;5.216;2022-08-16T07:30:44;21.45;;;9.30;;
54271;SDS011;40184;53.362;5.216;2022-08-16T07:33:10;27.67;;;9.40;;
54271;SDS011;40184;53.362;5.216;2022-08-16T07:35:37;22.08;;;10.10;;
54271;SDS011;40184;53.362;5.216;2022-08-16T07:38:04;28.67;;;10.07;;
54271;SDS011;40184;53.362;5.216;2022-08-16T07:40:30;25.85;;;10.70;;
54271;SDS011;40184;53.362;5.216;2022-08-16T07:42:57;26.95;;;10.30;;
54271;SDS011;40184;53.362;5.216;2022-08-16T07:45:22;21.08;;;9.68;;
54271;SDS011;40184;53.362;5.216;2022-08-16T07:47:48;22.35;;;10.63;;
54271;SDS011;40184;53.362;5.216;2022-08-16T07:50:14;20.50;;;9.65;;
54271;SDS011;40184;53.362;5.216;2022-08-16T07:52:41;26.48;;;10.45;;
54271;SDS011;40184;53.362;5.216;2022-08-16T07:55:08;23.90;;;9.68;;
54271;SDS011;40184;53.362;5.216;2022-08-16T07:57:37;23.88;;;10.20;;
54271;SDS011;40184;53.362;5.216;2022-08-16T08:00:04;22.95;;;10.40;;
54271;SDS011;40184;53.362;5.216;2022-08-16T08:02:31;19.33;;;10.73;;
54271;SDS011;40184;53.362;5.216;2022-08-16T08:04:57;19.02;;;9.88;;
54271;SDS011;40184;53.362;5.216;2022-08-16T08:07:23;16.73;;;9.98;;
54271;SDS011;40184;53.362;5.216;2022-08-16T08:09:49;19.15;;;9.18;;
54271;SDS011;40184;53.362;5.216;2022-08-16T08:12:15;20.88;;;10.88;;
54271;SDS011;40184;53.362;5.216;2022-08-16T08:14:43;18.35;;;11.10;;
54271;SDS011;40184;53.362;5.216;2022-08-16T08:17:10;18.90;;;10.63;;
54271;SDS011;40184;53.362;5.216;2022-08-16T08:19:36;20.98;;;10.98;;
54271;SDS011;40184;53.362;5.216;2022-08-16T08:22:05;16.27;;;10.40;;
54271;SDS011;40184;53.362;5.216;2022-08-16T08:24:31;23.17;;;12.10;;
54271;SDS011;40184;53.362;5.216;2022-08-16T08:26:59;17.77;;;10.60;;
54271;SDS011;40184;53.362;5.216;2022-08-16T08:29:25;22.33;;;11.48;;
54271;SDS011;40184;53.362;5.216;2022-08-16T08:31:51;23.95;;;11.98;;
54271;SDS011;40184;53.362;5.216;2022-08-16T08:34:17;23.13;;;11.60;;
54271;SDS011;40184;53.362;5.216;2022-08-16T08:36:43;19.75;;;10.90;;
54271;SDS011;40184;53.362;5.216;2022-08-16T08:39:08;22.38;;;10.48;;
54271;SDS011;40184;53.362;5.216;2022-08-16T08:41:34;20.23;;;10.80;;
54271;SDS011;40184;53.362;5.216;2022-08-16T08:44:00;21.05;;;11.02;;
54271;SDS011;40184;53.362;5.216;2022-08-16T08:46:26;25.85;;;10.15;;
54271;SDS011;40184;53.362;5.216;2022-08-16T08:48:53;22.17;;;11.52;;
54271;SDS011;40184;53.362;5.216;2022-08-16T08:51:19;17.85;;;10.48;;
54271;SDS011;40184;53.362;5.216;2022-08-16T08:53:46;14.15;;;9.98;;
54271;SDS011;40184;53.362;5.216;2022-08-16T08:56:13;18.30;;;9.45;;
54271;SDS011;40184;53.362;5.216;2022-08-16T08:58:39;20.75;;;10.43;;
54271;SDS011;40184;53.362;5.216;2022-08-16T09:01:06;17.33;;;9.68;;
54271;SDS011;40184;53.362;5.216;2022-08-16T09:03:36;19.55;;;10.05;;
54271;SDS011;40184;53.362;5.216;2022-08-16T09:06:03;19.30;;;10.43;;
54271;SDS011;40184;53.362;5.216;2022-08-16T09:08:30;16.38;;;11.63;;
54271;SDS011;40184;53.362;5.216;2022-08-16T09:10:57;14.77;;;9.18;;
54271;SDS011;40184;53.362;5.216;2022-08-16T09:13:24;17.15;;;10.27;;
54271;SDS011;40184;53.362;5.216;2022-08-16T09:15:51;17.00;;;10.90;;
54271;SDS011;40184;53.362;5.216;2022-08-16T09:18:19;14.13;;;9.45;;
54271;SDS011;40184;53.362;5.216;2022-08-16T09:20:47;18.20;;;10.93;;
54271;SDS011;40184;53.362;5.216;2022-08-16T09:23:13;18.80;;;10.75;;
54271;SDS011;40184;53.362;5.216;2022-08-16T09:25:39;20.83;;;11.70;;
54271;SDS011;40184;53.362;5.216;2022-08-16T09:28:05;14.18;;;9.35;;
54271;SDS011;40184;53.362;5.216;2022-08-16T09:30:32;18.33;;;10.38;;
54271;SDS011;40184;53.362;5.216;2022-08-16T09:33:01;17.80;;;10.23;;
54271;SDS011;40184;53.362;5.216;2022-08-16T09:35:28;18.38;;;10.57;;
54271;SDS011;40184;53.362;5.216;2022-08-16T09:37:53;18.38;;;10.90;;
54271;SDS011;40184;53.362;5.216;2022-08-16T09:40:21;16.08;;;9.88;;
54271;SDS011;40184;53.362;5.216;2022-08-16T09:42:47;11.65;;;8.70;;
54271;SDS011;40184;53.362;5.216;2022-08-16T09:45:12;23.02;;;10.75;;
54271;SDS011;40184;53.362;5.216;2022-08-16T09:47:38;13.18;;;9.95;;
54271;SDS011;40184;53.362;5.216;2022-08-16T09:50:06;16.85;;;11.80;;
54271;SDS011;40184;53.362;5.216;2022-08-16T09:52:34;18.55;;;10.13;;
54271;SDS011;40184;53.362;5.216;2022-08-16T09:55:02;18.10;;;11.25;;
54271;SDS011;40184;53.362;5.216;2022-08-16T09:57:30;17.08;;;10.18;;
54271;SDS011;40184;53.362;5.216;2022-08-16T09:59:56;20.02;;;10.80;;
54271;SDS011;40184;53.362;5.216;2022-08-16T10:02:21;18.65;;;11.68;;
54271;SDS011;40184;53.362;5.216;2022-08-16T10:04:49;18.60;;;10.90;;
54271;SDS011;40184;53.362;5.216;2022-08-16T10:07:15;18.70;;;10.23;;
54271;SDS011;40184;53.362;5.216;2022-08-16T10:09:45;13.15;;;9.82;;
54271;SDS011;40184;53.362;5.216;2022-08-16T10:12:11;15.25;;;9.57;;
54271;SDS011;40184;53.362;5.216;2022-08-16T10:14:59;16.20;;;11.45;;
54271;SDS011;40184;53.362;5.216;2022-08-16T10:17:25;20.35;;;10.43;;
54271;SDS011;40184;53.362;5.216;2022-08-16T10:19:51;16.02;;;10.57;;
54271;SDS011;40184;53.362;5.216;2022-08-16T10:22:19;15.20;;;9.20;;
54271;SDS011;40184;53.362;5.216;2022-08-16T10:24:46;12.93;;;9.73;;
54271;SDS011;40184;53.362;5.216;2022-08-16T10:27:11;13.80;;;10.07;;
54271;SDS011;40184;53.362;5.216;2022-08-16T10:29:37;16.42;;;10.13;;
54271;SDS011;40184;53.362;5.216;2022-08-16T10:32:04;12.98;;;10.07;;
54271;SDS011;40184;53.362;5.216;2022-08-16T10:34:29;18.00;;;9.80;;
54271;SDS011;40184;53.362;5.216;2022-08-16T10:36:55;15.38;;;10.13;;
54271;SDS011;40184;53.362;5.216;2022-08-16T10:39:21;17.50;;;10.88;;
54271;SDS011;40184;53.362;5.216;2022-08-16T10:41:46;15.25;;;10.80;;
54271;SDS011;40184;53.362;5.216;2022-08-16T10:44:12;14.00;;;10.75;;
54271;SDS011;40184;53.362;5.216;2022-08-16T10:46:39;16.52;;;10.98;;
54271;SDS011;40184;53.362;5.216;2022-08-16T10:49:06;18.33;;;11.13;;
54271;SDS011;40184;53.362;5.216;2022-08-16T10:51:31;13.98;;;10.15;;
54271;SDS011;40184;53.362;5.216;2022-08-16T10:53:57;20.65;;;10.52;;
54271;SDS011;40184;53.362;5.216;2022-08-16T10:56:23;14.77;;;8.65;;
54271;SDS011;40184;53.362;5.216;2022-08-16T10:58:50;14.55;;;9.27;;
54271;SDS011;40184;53.362;5.216;2022-08-16T11:01:16;11.75;;;9.73;;
54271;SDS011;40184;53.362;5.216;2022-08-16T11:03:41;15.65;;;9.10;;
54271;SDS011;40184;53.362;5.216;2022-08-16T11:06:07;15.52;;;9.63;;
54271;SDS011;40184;53.362;5.216;2022-08-16T11:08:34;13.13;;;8.73;;
54271;SDS011;40184;53.362;5.216;2022-08-16T11:11:01;14.88;;;10.60;;
54271;SDS011;40184;53.362;5.216;2022-08-16T11:13:29;17.90;;;9.52;;
54271;SDS011;40184;53.362;5.216;2022-08-16T11:15:55;17.63;;;9.88;;
54271;SDS011;40184;53.362;5.216;2022-08-16T11:18:21;12.63;;;8.18;;
54271;SDS011;40184;53.362;5.216;2022-08-16T11:20:48;18.60;;;8.05;;
54271;SDS011;40184;53.362;5.216;2022-08-16T11:23:13;12.45;;;7.85;;
54271;SDS011;40184;53.362;5.216;2022-08-16T11:25:39;11.00;;;8.07;;
54271;SDS011;40184;53.362;5.216;2022-08-16T11:28:07;12.27;;;9.45;;
54271;SDS011;40184;53.362;5.216;2022-08-16T11:30:34;20.08;;;10.82;;
54271;SDS011;40184;53.362;5.216;2022-08-16T11:33:00;15.05;;;8.85;;
54271;SDS011;40184;53.362;5.216;2022-08-16T11:35:27;11.57;;;8.55;;
54271;SDS011;40184;53.362;5.216;2022-08-16T11:37:59;11.00;;;8.98;;
54271;SDS011;40184;53.362;5.216;2022-08-16T11:40:32;13.10;;;8.60;;
54271;SDS011;40184;53.362;5.216;2022-08-16T11:43:01;19.20;;;8.57;;
54271;SDS011;40184;53.362;5.216;2022-08-16T11:45:28;11.57;;;8.23;;
54271;SDS011;40184;53.362;5.216;2022-08-16T11:47:54;11.70;;;7.03;;
54271;SDS011;40184;53.362;5.216;2022-08-16T11:50:20;12.88;;;9.30;;
54271;SDS011;40184;53.362;5.216;2022-08-16T11:52:47;15.60;;;8.63;;
54271;SDS011;40184;53.362;5.216;2022-08-16T11:55:13;15.35;;;7.72;;
54271;SDS011;40184;53.362;5.216;2022-08-16T11:57:39;12.52;;;8.57;;
54271;SDS011;40184;53.362;5.216;2022-08-16T12:00:08;7.93;;;6.55;;
54271;SDS011;40184;53.362;5.216;2022-08-16T12:02:36;14.27;;;7.38;;
54271;SDS011;40184;53.362;5.216;2022-08-16T12:05:04;11.27;;;8.45;;
54271;SDS011;40184;53.362;5.216;2022-08-16T12:07:31;11.23;;;8.02;;
54271;SDS011;40184;53.362;5.216;2022-08-16T12:09:57;11.68;;;7.05;;
54271;SDS011;40184;53.362;5.216;2022-08-16T12:12:23;9.95;;;7.63;;
54271;SDS011;40184;53.362;5.216;2022-08-16T12:14:50;12.60;;;6.88;;
54271;SDS011;40184;53.362;5.216;2022-08-16T12:17:16;9.40;;;7.28;;
54271;SDS011;40184;53.362;5.216;2022-08-16T12:19:43;15.93;;;7.22;;
54271;SDS011;40184;53.362;5.216;2022-08-16T12:22:10;10.75;;;7.13;;
54271;SDS011;40184;53.362;5.216;2022-08-16T12:24:36;11.10;;;7.55;;
54271;SDS011;40184;53.362;5.216;2022-08-16T12:27:02;11.25;;;7.40;;
54271;SDS011;40184;53.362;5.216;2022-08-16T12:29:27;10.20;;;7.20;;
54271;SDS011;40184;53.362;5.216;2022-08-16T12:31:54;13.60;;;7.30;;
54271;SDS011;40184;53.362;5.216;2022-08-16T12:34:19;18.02;;;6.80;;
54271;SDS011;40184;53.362;5.216;2022-08-16T12:36:45;12.75;;;6.47;;
54271;SDS011;40184;53.362;5.216;2022-08-16T12:39:11;15.93;;;7.22;;
54271;SDS011;40184;53.362;5.216;2022-08-16T12:41:38;12.30;;;7.15;;
54271;SDS011;40184;53.362;5.216;2022-08-16T12:44:04;12.70;;;6.95;;
54271;SDS011;40184;53.362;5.216;2022-08-16T12:46:30;8.38;;;6.80;;
54271;SDS011;40184;53.362;5.216;2022-08-16T12:48:59;8.25;;;6.38;;
54271;SDS011;40184;53.362;5.216;2022-08-16T12:51:31;11.48;;;6.57;;
54271;SDS011;40184;53.362;5.216;2022-08-16T12:54:05;23.00;;;7.53;;
54271;SDS011;40184;53.362;5.216;2022-08-16T12:56:35;8.80;;;7.20;;
54271;SDS011;40184;53.362;5.216;2022-08-16T12:59:07;10.13;;;5.53;;
54271;SDS011;40184;53.362;5.216;2022-08-16T13:01:36;11.73;;;6.47;;
54271;SDS011;40184;53.362;5.216;2022-08-16T13:04:04;7.93;;;5.88;;
54271;SDS011;40184;53.362;5.216;2022-08-16T13:06:34;9.27;;;6.68;;
54271;SDS011;40184;53.362;5.216;2022-08-16T13:09:01;8.05;;;5.60;;
54271;SDS011;40184;53.362;5.216;2022-08-16T13:11:45;12.60;;;6.97;;
54271;SDS011;40184;53.362;5.216;2022-08-16T13:14:23;7.65;;;6.93;;
54271;SDS011;40184;53.362;5.216;2022-08-16T13:16:50;10.60;;;8.25;;
54271;SDS011;40184;53.362;5.216;2022-08-16T13:19:16;13.27;;;8.57;;
54271;SDS011;40184;53.362;5.216;2022-08-16T13:21:41;10.43;;;9.05;;
54271;SDS011;40184;53.362;5.216;2022-08-16T13:24:07;9.45;;;8.18;;
54271;SDS011;40184;53.362;5.216;2022-08-16T13:26:32;8.70;;;7.57;;
54271;SDS011;40184;53.362;5.216;2022-08-16T13:28:58;7.53;;;6.82;;
54271;SDS011;40184;53.362;5.216;2022-08-16T13:31:24;9.55;;;7.32;;
54271;SDS011;40184;53.362;5.216;2022-08-16T13:33:49;7.95;;;7.15;;
54271;SDS011;40184;53.362;5.216;2022-08-16T13:36:15;44.65;;;7.43;;
54271;SDS011;40184;53.362;5.216;2022-08-16T13:38:41;9.15;;;7.00;;
54271;SDS011;40184;53.362;5.216;2022-08-16T13:41:08;9.23;;;8.18;;
54271;SDS011;40184;53.362;5.216;2022-08-16T13:43:37;9.70;;;7.43;;
54271;SDS011;40184;53.362;5.216;2022-08-16T13:46:03;15.43;;;7.65;;
54271;SDS011;40184;53.362;5.216;2022-08-16T13:48:30;6.90;;;6.30;;
54271;SDS011;40184;53.362;5.216;2022-08-16T13:50:57;7.63;;;5.93;;
54271;SDS011;40184;53.362;5.216;2022-08-16T13:53:24;7.68;;;6.75;;
54271;SDS011;40184;53.362;5.216;2022-08-16T13:55:51;7.68;;;6.97;;
54271;SDS011;40184;53.362;5.216;2022-08-16T13:58:18;8.82;;;7.82;;
54271;SDS011;40184;53.362;5.216;2022-08-16T14:00:44;9.88;;;7.03;;
54271;SDS011;40184;53.362;5.216;2022-08-16T14:03:09;8.48;;;7.60;;
54271;SDS011;40184;53.362;5.216;2022-08-16T14:05:35;7.85;;;7.15;;
54271;SDS011;40184;53.362;5.216;2022-08-16T14:08:01;11.60;;;7.00;;
54271;SDS011;40184;53.362;5.216;2022-08-16T14:10:26;8.02;;;6.20;;
54271;SDS011;40184;53.362;5.216;2022-08-16T14:12:52;8.82;;;7.35;;
54271;SDS011;40184;53.362;5.216;2022-08-16T14:15:18;8.68;;;7.95;;
54271;SDS011;40184;53.362;5.216;2022-08-16T14:17:45;8.50;;;7.35;;
54271;SDS011;40184;53.362;5.216;2022-08-16T14:20:11;9.43;;;8.63;;
54271;SDS011;40184;53.362;5.216;2022-08-16T14:22:38;8.43;;;7.38;;
54271;SDS011;40184;53.362;5.216;2022-08-16T14:25:06;10.63;;;9.57;;
54271;SDS011;40184;53.362;5.216;2022-08-16T14:27:33;14.85;;;10.02;;
54271;SDS011;40184;53.362;5.216;2022-08-16T14:29:59;11.68;;;10.05;;
54271;SDS011;40184;53.362;5.216;2022-08-16T14:32:27;11.77;;;10.63;;
54271;SDS011;40184;53.362;5.216;2022-08-16T14:34:54;12.50;;;9.15;;
54271;SDS011;40184;53.362;5.216;2022-08-16T14:37:21;11.68;;;10.13;;